sensor_id;sensor_type;location;lat;lon;timestamp;pressure;altitude;pressure_sealevel;temperature;humidity
12897;BME280;6516;35.028;32.372;2023-03-04T00:00:05;100324.59;;;14.41;92.02
12897;BME280;6516;35.028;32.372;2023-03-04T00:02:34;100310.59;;;14.37;91.67
12897;BME280;6516;35.028;32.372;2023-03-04T00:05:02;100310.63;;;14.36;91.86
12897;BME280;6516;35.028;32.372;2023-03-04T00:07:30;100305.34;;;14.36;92.42
12897;BME280;6516;35.028;32.372;2023-03-04T00:09:58;100301.78;;;14.37;91.94
12897;BME280;6516;35.028;32.372;2023-03-04T00:12:27;100306.09;;;14.39;90.85
12897;BME280;6516;35.028;32.372;2023-03-04T00:14:55;100301.78;;;14.37;90.48
12897;BME280;6516;35.028;32.372;2023-03-04T00:17:22;100313.31;;;14.34;90.72
12897;BME280;6516;35.028;32.372;2023-03-04T00:19:50;100309.69;;;14.38;90.65
12897;BME280;6516;35.028;32.372;2023-03-04T00:22:18;100304.50;;;14.35;90.47
12897;BME280;6516;35.028;32.372;2023-03-04T00:24:46;100306.31;;;14.33;90.42
12897;BME280;6516;35.028;32.372;2023-03-04T00:27:13;100298.50;;;14.29;90.16
12897;BME280;6516;35.028;32.372;2023-03-04T00:29:43;100301.28;;;14.24;90.23
12897;BME280;6516;35.028;32.372;2023-03-04T00:32:11;100296.03;;;14.23;90.21
12897;BME280;6516;35.028;32.372;2023-03-04T00:34:38;100293.28;;;14.26;90.40
12897;BME280;6516;35.028;32.372;2023-03-04T00:37:07;100292.50;;;14.24;90.47
12897;BME280;6516;35.028;32.372;2023-03-04T00:39:35;100296.81;;;14.26;90.14
12897;BME280;6516;35.028;32.372;2023-03-04T00:42:03;100288.94;;;14.25;90.18
12897;BME280;6516;35.028;32.372;2023-03-04T00:44:31;100294.94;;;14.30;89.78
12897;BME280;6516;35.028;32.372;2023-03-04T00:47:00;100287.97;;;14.27;89.52
12897;BME280;6516;35.028;32.372;2023-03-04T00:49:28;100285.50;;;14.21;89.59
12897;BME280;6516;35.028;32.372;2023-03-04T00:51:55;100279.38;;;14.18;89.43
12897;BME280;6516;35.028;32.372;2023-03-04T00:54:23;100285.63;;;14.15;89.67
12897;BME280;6516;35.028;32.372;2023-03-04T00:56:51;100288.31;;;14.14;89.91
12897;BME280;6516;35.028;32.372;2023-03-04T00:59:19;100284.88;;;14.12;90.48
12897;BME280;6516;35.028;32.372;2023-03-04T01:01:47;100290.97;;;14.14;90.23
12897;BME280;6516;35.028;32.372;2023-03-04T01:04:16;100291.94;;;14.11;90.10
12897;BME280;6516;35.028;32.372;2023-03-04T01:06:44;100292.63;;;14.18;90.17
12897;BME280;6516;35.028;32.372;2023-03-04T01:09:12;100291.81;;;14.16;89.94
12897;BME280;6516;35.028;32.372;2023-03-04T01:11:39;100281.31;;;14.13;90.15
12897;BME280;6516;35.028;32.372;2023-03-04T01:14:07;100278.75;;;14.10;90.39
12897;BME280;6516;35.028;32.372;2023-03-04T01:16:35;100277.19;;;14.03;90.33
12897;BME280;6516;35.028;32.372;2023-03-04T01:19:03;100267.53;;;14.02;90.57
12897;BME280;6516;35.028;32.372;2023-03-04T01:21:32;100272.13;;;13.95;90.74
12897;BME280;6516;35.028;32.372;2023-03-04T01:24:00;100265.00;;;13.97;90.55
12897;BME280;6516;35.028;32.372;2023-03-04T01:26:27;100263.28;;;13.96;90.59
12897;BME280;6516;35.028;32.372;2023-03-04T01:28:55;100263.34;;;13.93;90.68
12897;BME280;6516;35.028;32.372;2023-03-04T01:31:23;100264.31;;;13.91;90.86
12897;BME280;6516;35.028;32.372;2023-03-04T01:33:51;100264.47;;;13.86;91.10
12897;BME280;6516;35.028;32.372;2023-03-04T01:36:18;100273.38;;;13.84;91.12
12897;BME280;6516;35.028;32.372;2023-03-04T01:38:48;100271.72;;;13.80;90.83
12897;BME280;6516;35.028;32.372;2023-03-04T01:41:18;100270.88;;;13.78;91.36
12897;BME280;6516;35.028;32.372;2023-03-04T01:43:50;100266.50;;;13.77;91.58
12897;BME280;6516;35.028;32.372;2023-03-04T01:46:19;100263.91;;;13.75;91.43
12897;BME280;6516;35.028;32.372;2023-03-04T01:48:46;100257.88;;;13.70;91.35
12897;BME280;6516;35.028;32.372;2023-03-04T01:51:16;100263.16;;;13.70;91.14
12897;BME280;6516;35.028;32.372;2023-03-04T01:53:46;100265.97;;;13.66;91.48
12897;BME280;6516;35.028;32.372;2023-03-04T01:56:21;100272.25;;;13.62;91.54
12897;BME280;6516;35.028;32.372;2023-03-04T01:59:05;100273.16;;;13.61;91.89
12897;BME280;6516;35.028;32.372;2023-03-04T02:01:35;100275.81;;;13.61;92.33
12897;BME280;6516;35.028;32.372;2023-03-04T02:04:04;100282.91;;;13.59;92.13
12897;BME280;6516;35.028;32.372;2023-03-04T02:06:32;100283.81;;;13.58;92.32
12897;BME280;6516;35.028;32.372;2023-03-04T02:09:02;100284.81;;;13.54;92.24
12897;BME280;6516;35.028;32.372;2023-03-04T02:11:30;100282.19;;;13.52;92.48
12897;BME280;6516;35.028;32.372;2023-03-04T02:13:59;100278.78;;;13.49;92.49
12897;BME280;6516;35.028;32.372;2023-03-04T02:16:27;100283.28;;;13.45;92.48
12897;BME280;6516;35.028;32.372;2023-03-04T02:18:55;100284.31;;;13.40;92.32
12897;BME280;6516;35.028;32.372;2023-03-04T02:21:24;100284.31;;;13.40;92.94
12897;BME280;6516;35.028;32.372;2023-03-04T02:23:59;100287.03;;;13.37;92.76
12897;BME280;6516;35.028;32.372;2023-03-04T02:26:35;100290.72;;;13.31;92.61
12897;BME280;6516;35.028;32.372;2023-03-04T02:29:04;100293.03;;;13.43;93.14
12897;BME280;6516;35.028;32.372;2023-03-04T02:31:34;100302.75;;;13.43;93.19
12897;BME280;6516;35.028;32.372;2023-03-04T02:34:05;100299.94;;;13.49;93.06
12897;BME280;6516;35.028;32.372;2023-03-04T02:36:35;100293.72;;;13.50;93.08
12897;BME280;6516;35.028;32.372;2023-03-04T02:39:06;100306.03;;;13.51;93.04
12897;BME280;6516;35.028;32.372;2023-03-04T02:41:39;100306.03;;;13.51;93.06
12897;BME280;6516;35.028;32.372;2023-03-04T02:44:15;100299.81;;;13.53;92.89
12897;BME280;6516;35.028;32.372;2023-03-04T02:46:46;100295.47;;;13.51;93.12
12897;BME280;6516;35.028;32.372;2023-03-04T02:49:15;100300.72;;;13.52;92.71
12897;BME280;6516;35.028;32.372;2023-03-04T02:51:44;100304.16;;;13.56;92.00
12897;BME280;6516;35.028;32.372;2023-03-04T02:54:15;100309.44;;;13.56;91.97
12897;BME280;6516;35.028;32.372;2023-03-04T02:56:49;100313.06;;;13.53;92.07
12897;BME280;6516;35.028;32.372;2023-03-04T02:59:18;100304.97;;;13.58;92.17
12897;BME280;6516;35.028;32.372;2023-03-04T03:01:47;100302.47;;;13.53;91.69
12897;BME280;6516;35.028;32.372;2023-03-04T03:04:15;100306.19;;;13.46;91.65
12897;BME280;6516;35.028;32.372;2023-03-04T03:06:43;100306.22;;;13.45;92.00
12897;BME280;6516;35.028;32.372;2023-03-04T03:09:11;100301.06;;;13.40;91.70
12897;BME280;6516;35.028;32.372;2023-03-04T03:11:39;100293.28;;;13.34;91.52
12897;BME280;6516;35.028;32.372;2023-03-04T03:14:08;100303.13;;;13.28;91.79
12897;BME280;6516;35.028;32.372;2023-03-04T03:16:36;100305.91;;;13.23;91.56
12897;BME280;6516;35.028;32.372;2023-03-04T03:19:04;100301.69;;;13.16;91.47
12897;BME280;6516;35.028;32.372;2023-03-04T03:21:32;100302.81;;;13.08;91.33
12897;BME280;6516;35.028;32.372;2023-03-04T03:24:00;100303.84;;;13.01;91.32
12897;BME280;6516;35.028;32.372;2023-03-04T03:26:28;100296.97;;;12.94;91.66
12897;BME280;6516;35.028;32.372;2023-03-04T03:28:55;100308.56;;;12.87;91.66
12897;BME280;6516;35.028;32.372;2023-03-04T03:31:25;100309.66;;;12.80;91.81
12897;BME280;6516;35.028;32.372;2023-03-04T03:33:52;100303.63;;;12.73;91.98
12897;BME280;6516;35.028;32.372;2023-03-04T03:36:20;100299.38;;;12.68;92.13
12897;BME280;6516;35.028;32.372;2023-03-04T03:38:48;100301.25;;;12.63;92.15
12897;BME280;6516;35.028;32.372;2023-03-04T03:41:16;100297.78;;;12.61;92.32
12897;BME280;6516;35.028;32.372;2023-03-04T03:43:43;100288.22;;;12.55;92.56
12897;BME280;6516;35.028;32.372;2023-03-04T03:46:11;100293.56;;;12.52;92.77
12897;BME280;6516;35.028;32.372;2023-03-04T03:48:40;100293.69;;;12.48;92.57
12897;BME280;6516;35.028;32.372;2023-03-04T03:51:08;100292.94;;;12.43;92.58
12897;BME280;6516;35.028;32.372;2023-03-04T03:53:36;100283.34;;;12.39;92.93
12897;BME280;6516;35.028;32.372;2023-03-04T03:56:04;100280.75;;;12.36;93.51
12897;BME280;6516;35.028;32.372;2023-03-04T03:58:32;100280.81;;;12.33;93.97
12897;BME280;6516;35.028;32.372;2023-03-04T04:01:00;100280.06;;;12.28;93.78
12897;BME280;6516;35.028;32.372;2023-03-04T04:03:28;100277.53;;;12.23;93.87
12897;BME280;6516;35.028;32.372;2023-03-04T04:05:57;100280.25;;;12.20;94.06
12897;BME280;6516;35.028;32.372;2023-03-04T04:08:25;100277.78;;;12.13;93.92
12897;BME280;6516;35.028;32.372;2023-03-04T04:10:53;100284.00;;;12.10;94.45
12897;BME280;6516;35.028;32.372;2023-03-04T04:13:20;100276.16;;;12.06;94.55
12897;BME280;6516;35.028;32.372;2023-03-04T04:15:52;100277.03;;;12.06;95.25
12897;BME280;6516;35.028;32.372;2023-03-04T04:18:20;100284.19;;;12.01;94.77
12897;BME280;6516;35.028;32.372;2023-03-04T04:20:48;100280.75;;;11.98;94.69
12897;BME280;6516;35.028;32.372;2023-03-04T04:23:19;100273.78;;;11.95;94.75
12897;BME280;6516;35.028;32.372;2023-03-04T04:25:47;100280.00;;;11.93;94.59
12897;BME280;6516;35.028;32.372;2023-03-04T04:28:15;100283.56;;;11.90;94.96
12897;BME280;6516;35.028;32.372;2023-03-04T04:30:43;100282.75;;;11.85;94.78
12897;BME280;6516;35.028;32.372;2023-03-04T04:33:10;100288.13;;;11.82;94.78
12897;BME280;6516;35.028;32.372;2023-03-04T04:35:38;100297.00;;;11.78;94.96
12897;BME280;6516;35.028;32.372;2023-03-04T04:38:07;100299.47;;;11.86;95.55
12897;BME280;6516;35.028;32.372;2023-03-04T04:40:37;100292.88;;;12.06;96.85
12897;BME280;6516;35.028;32.372;2023-03-04T04:43:05;100295.09;;;12.26;96.66
12897;BME280;6516;35.028;32.372;2023-03-04T04:45:33;100293.03;;;12.38;96.20
12897;BME280;6516;35.028;32.372;2023-03-04T04:48:01;100299.84;;;12.47;95.56
12897;BME280;6516;35.028;32.372;2023-03-04T04:50:29;100296.13;;;12.57;95.19
12897;BME280;6516;35.028;32.372;2023-03-04T04:52:57;100287.13;;;12.64;94.42
12897;BME280;6516;35.028;32.372;2023-03-04T04:55:24;100284.31;;;12.71;94.10
12897;BME280;6516;35.028;32.372;2023-03-04T04:57:54;100288.53;;;12.78;93.80
12897;BME280;6516;35.028;32.372;2023-03-04T05:00:22;100294.47;;;12.88;93.30
12897;BME280;6516;35.028;32.372;2023-03-04T05:02:49;100294.28;;;12.97;93.42
12897;BME280;6516;35.028;32.372;2023-03-04T05:05:17;100285.06;;;13.11;93.11
12897;BME280;6516;35.028;32.372;2023-03-04T05:07:45;100297.94;;;13.25;92.50
12897;BME280;6516;35.028;32.372;2023-03-04T05:10:17;100300.25;;;13.37;91.85
12897;BME280;6516;35.028;32.372;2023-03-04T05:12:45;100294.81;;;13.43;91.57
12897;BME280;6516;35.028;32.372;2023-03-04T05:15:16;100306.91;;;13.51;91.17
12897;BME280;6516;35.028;32.372;2023-03-04T05:17:43;100319.00;;;13.60;90.69
12897;BME280;6516;35.028;32.372;2023-03-04T05:20:12;100323.06;;;13.73;89.98
12897;BME280;6516;35.028;32.372;2023-03-04T05:22:39;100323.53;;;13.87;90.03
12897;BME280;6516;35.028;32.372;2023-03-04T05:25:08;100327.56;;;14.00;89.23
12897;BME280;6516;35.028;32.372;2023-03-04T05:27:36;100309.44;;;14.17;89.11
12897;BME280;6516;35.028;32.372;2023-03-04T05:30:05;100319.59;;;14.32;88.51
12897;BME280;6516;35.028;32.372;2023-03-04T05:32:35;100313.84;;;14.47;87.76
12897;BME280;6516;35.028;32.372;2023-03-04T05:35:03;100315.09;;;14.63;86.97
12897;BME280;6516;35.028;32.372;2023-03-04T05:37:31;100323.28;;;14.83;86.31
12897;BME280;6516;35.028;32.372;2023-03-04T05:39:59;100319.25;;;14.97;85.47
12897;BME280;6516;35.028;32.372;2023-03-04T05:42:26;100322.06;;;15.19;85.14
12897;BME280;6516;35.028;32.372;2023-03-04T05:44:54;100327.72;;;15.34;83.81
12897;BME280;6516;35.028;32.372;2023-03-04T05:47:22;100336.81;;;15.53;83.07
12897;BME280;6516;35.028;32.372;2023-03-04T05:49:51;100343.16;;;15.74;82.30
12897;BME280;6516;35.028;32.372;2023-03-04T05:52:19;100347.81;;;15.92;80.83
12897;BME280;6516;35.028;32.372;2023-03-04T05:54:47;100352.50;;;16.08;79.40
12897;BME280;6516;35.028;32.372;2023-03-04T05:57:14;100354.63;;;16.22;78.85
12897;BME280;6516;35.028;32.372;2023-03-04T05:59:42;100350.53;;;16.36;78.08
12897;BME280;6516;35.028;32.372;2023-03-04T06:02:10;100355.28;;;16.51;77.03
12897;BME280;6516;35.028;32.372;2023-03-04T06:04:38;100361.75;;;16.67;76.85
12897;BME280;6516;35.028;32.372;2023-03-04T06:07:07;100366.56;;;16.79;75.91
12897;BME280;6516;35.028;32.372;2023-03-04T06:09:35;100370.06;;;17.03;75.56
12897;BME280;6516;35.028;32.372;2023-03-04T06:12:03;100366.34;;;17.07;74.94
12897;BME280;6516;35.028;32.372;2023-03-04T06:14:31;100362.94;;;17.25;73.73
12897;BME280;6516;35.028;32.372;2023-03-04T06:16:58;100367.53;;;17.43;72.53
12897;BME280;6516;35.028;32.372;2023-03-04T06:19:26;100368.94;;;17.51;72.28
12897;BME280;6516;35.028;32.372;2023-03-04T06:21:54;100377.00;;;17.70;71.37
12897;BME280;6516;35.028;32.372;2023-03-04T06:24:23;100372.34;;;17.75;71.60
12897;BME280;6516;35.028;32.372;2023-03-04T06:26:53;100373.97;;;17.97;69.89
12897;BME280;6516;35.028;32.372;2023-03-04T06:29:20;100385.47;;;17.79;70.00
12897;BME280;6516;35.028;32.372;2023-03-04T06:31:48;100395.63;;;17.90;70.32
12897;BME280;6516;35.028;32.372;2023-03-04T06:34:16;100395.25;;;17.79;69.56
12897;BME280;6516;35.028;32.372;2023-03-04T06:36:44;100406.72;;;18.01;68.59
12897;BME280;6516;35.028;32.372;2023-03-04T06:39:12;100402.63;;;18.12;68.72
12897;BME280;6516;35.028;32.372;2023-03-04T06:41:42;100403.28;;;18.37;67.90
12897;BME280;6516;35.028;32.372;2023-03-04T06:44:10;100413.19;;;18.54;66.68
12897;BME280;6516;35.028;32.372;2023-03-04T06:46:38;100400.63;;;18.37;65.69
12897;BME280;6516;35.028;32.372;2023-03-04T06:49:05;100419.59;;;18.30;67.42
12897;BME280;6516;35.028;32.372;2023-03-04T06:51:33;100414.25;;;18.88;66.72
12897;BME280;6516;35.028;32.372;2023-03-04T06:54:01;100421.56;;;18.65;64.56
12897;BME280;6516;35.028;32.372;2023-03-04T06:56:29;100423.00;;;18.53;64.92
12897;BME280;6516;35.028;32.372;2023-03-04T06:58:59;100422.09;;;18.73;64.07
12897;BME280;6516;35.028;32.372;2023-03-04T07:01:27;100410.59;;;19.08;64.47
12897;BME280;6516;35.028;32.372;2023-03-04T07:03:57;100413.47;;;19.40;63.46
12897;BME280;6516;35.028;32.372;2023-03-04T07:06:27;100404.59;;;19.57;62.55
12897;BME280;6516;35.028;32.372;2023-03-04T07:08:55;100408.66;;;19.30;62.92
12897;BME280;6516;35.028;32.372;2023-03-04T07:11:23;100409.03;;;19.75;62.45
12897;BME280;6516;35.028;32.372;2023-03-04T07:13:52;100406.50;;;19.89;60.40
12897;BME280;6516;35.028;32.372;2023-03-04T07:16:22;100402.44;;;19.82;59.54
12897;BME280;6516;35.028;32.372;2023-03-04T07:18:50;100405.41;;;19.76;59.91
12897;BME280;6516;35.028;32.372;2023-03-04T07:21:18;100415.81;;;19.29;61.33
12897;BME280;6516;35.028;32.372;2023-03-04T07:23:46;100416.13;;;19.22;60.59
12897;BME280;6516;35.028;32.372;2023-03-04T07:26:14;100412.75;;;19.37;61.16
12897;BME280;6516;35.028;32.372;2023-03-04T07:28:44;100412.81;;;19.35;60.55
12897;BME280;6516;35.028;32.372;2023-03-04T07:31:21;100420.69;;;19.20;60.92
12897;BME280;6516;35.028;32.372;2023-03-04T07:33:55;100420.84;;;19.35;60.26
12897;BME280;6516;35.028;32.372;2023-03-04T07:36:23;100418.03;;;19.55;61.20
12897;BME280;6516;35.028;32.372;2023-03-04T07:38:52;100413.75;;;20.04;60.54
12897;BME280;6516;35.028;32.372;2023-03-04T07:41:21;100417.91;;;20.27;58.00
12897;BME280;6516;35.028;32.372;2023-03-04T07:43:51;100418.13;;;20.39;57.16
12897;BME280;6516;35.028;32.372;2023-03-04T07:46:20;100409.94;;;20.42;57.21
12897;BME280;6516;35.028;32.372;2023-03-04T07:48:48;100409.41;;;20.36;54.72
12897;BME280;6516;35.028;32.372;2023-03-04T07:51:17;100411.63;;;20.60;55.70
12897;BME280;6516;35.028;32.372;2023-03-04T07:53:48;100409.72;;;20.62;56.07
12897;BME280;6516;35.028;32.372;2023-03-04T07:56:19;100413.59;;;21.05;56.06
12897;BME280;6516;35.028;32.372;2023-03-04T07:58:49;100413.03;;;20.83;54.53
12897;BME280;6516;35.028;32.372;2023-03-04T08:01:19;100413.88;;;21.16;53.42
12897;BME280;6516;35.028;32.372;2023-03-04T08:03:50;100416.13;;;20.75;51.97
12897;BME280;6516;35.028;32.372;2023-03-04T08:06:19;100420.41;;;20.62;54.05
12897;BME280;6516;35.028;32.372;2023-03-04T08:08:47;100420.47;;;20.45;54.92
12897;BME280;6516;35.028;32.372;2023-03-04T08:11:18;100424.25;;;20.41;55.59
12897;BME280;6516;35.028;32.372;2023-03-04T08:13:47;100430.88;;;20.34;55.08
12897;BME280;6516;35.028;32.372;2023-03-04T08:16:17;100422.97;;;20.81;55.34
12897;BME280;6516;35.028;32.372;2023-03-04T08:18:48;100422.06;;;21.13;54.13
12897;BME280;6516;35.028;32.372;2023-03-04T08:21:18;100423.19;;;21.24;55.41
12897;BME280;6516;35.028;32.372;2023-03-04T08:23:47;100419.75;;;21.22;54.72
12897;BME280;6516;35.028;32.372;2023-03-04T08:26:17;100417.91;;;21.07;54.90
12897;BME280;6516;35.028;32.372;2023-03-04T08:28:47;100419.13;;;21.17;54.38
12897;BME280;6516;35.028;32.372;2023-03-04T08:31:16;100419.66;;;21.08;54.85
12897;BME280;6516;35.028;32.372;2023-03-04T08:33:46;100422.22;;;20.94;55.37
12897;BME280;6516;35.028;32.372;2023-03-04T08:36:14;100415.94;;;20.95;53.19
12897;BME280;6516;35.028;32.372;2023-03-04T08:38:42;100414.66;;;20.85;54.21
12897;BME280;6516;35.028;32.372;2023-03-04T08:41:11;100408.94;;;20.93;53.86
12897;BME280;6516;35.028;32.372;2023-03-04T08:43:40;100416.66;;;20.82;55.24
12897;BME280;6516;35.028;32.372;2023-03-04T08:46:08;100410.91;;;21.05;55.16
12897;BME280;6516;35.028;32.372;2023-03-04T08:48:36;100414.81;;;20.99;54.70
12897;BME280;6516;35.028;32.372;2023-03-04T08:51:08;100417.97;;;21.52;53.84
12897;BME280;6516;35.028;32.372;2023-03-04T08:53:38;100413.97;;;21.59;53.71
12897;BME280;6516;35.028;32.372;2023-03-04T08:56:06;100408.41;;;21.62;53.20
12897;BME280;6516;35.028;32.372;2023-03-04T08:58:35;100407.25;;;21.52;53.66
12897;BME280;6516;35.028;32.372;2023-03-04T09:01:04;100407.28;;;21.66;53.08
12897;BME280;6516;35.028;32.372;2023-03-04T09:03:34;100414.91;;;22.03;52.38
12897;BME280;6516;35.028;32.372;2023-03-04T09:06:03;100407.25;;;22.11;52.16
12897;BME280;6516;35.028;32.372;2023-03-04T09:08:32;100402.06;;;21.94;51.72
12897;BME280;6516;35.028;32.372;2023-03-04T09:11:01;100398.63;;;22.06;50.84
12897;BME280;6516;35.028;32.372;2023-03-04T09:13:30;100397.00;;;22.04;50.69
12897;BME280;6516;35.028;32.372;2023-03-04T09:15:58;100396.47;;;22.27;51.20
12897;BME280;6516;35.028;32.372;2023-03-04T09:18:26;100389.94;;;22.31;51.29
12897;BME280;6516;35.028;32.372;2023-03-04T09:20:54;100402.84;;;22.10;52.09
12897;BME280;6516;35.028;32.372;2023-03-04T09:23:22;100389.72;;;22.49;51.03
12897;BME280;6516;35.028;32.372;2023-03-04T09:25:51;100380.38;;;22.69;50.51
12897;BME280;6516;35.028;32.372;2023-03-04T09:28:19;100376.19;;;22.65;48.71
12897;BME280;6516;35.028;32.372;2023-03-04T09:30:47;100367.94;;;23.22;47.79
12897;BME280;6516;35.028;32.372;2023-03-04T09:33:15;100370.59;;;22.82;46.46
12897;BME280;6516;35.028;32.372;2023-03-04T09:35:43;100366.78;;;22.58;48.60
12897;BME280;6516;35.028;32.372;2023-03-04T09:38:13;100354.69;;;22.79;48.56
12897;BME280;6516;35.028;32.372;2023-03-04T09:40:44;100348.50;;;22.91;48.55
12897;BME280;6516;35.028;32.372;2023-03-04T09:43:18;100346.38;;;22.55;49.94
12897;BME280;6516;35.028;32.372;2023-03-04T09:45:50;100332.84;;;22.71;49.57
12897;BME280;6516;35.028;32.372;2023-03-04T09:48:23;100338.19;;;22.85;49.03
12897;BME280;6516;35.028;32.372;2023-03-04T09:51:10;100337.66;;;22.24;50.33
12897;BME280;6516;35.028;32.372;2023-03-04T09:53:53;100321.81;;;22.33;51.22
12897;BME280;6516;35.028;32.372;2023-03-04T09:56:29;100318.75;;;22.11;51.81
12897;BME280;6516;35.028;32.372;2023-03-04T09:59:07;100317.41;;;22.04;51.14
12897;BME280;6516;35.028;32.372;2023-03-04T10:01:48;100322.13;;;22.29;50.70
12897;BME280;6516;35.028;32.372;2023-03-04T10:04:25;100307.44;;;22.76;50.19
12897;BME280;6516;35.028;32.372;2023-03-04T10:06:57;100311.47;;;22.41;49.27
12897;BME280;6516;35.028;32.372;2023-03-04T10:09:27;100311.28;;;22.30;50.29
12897;BME280;6516;35.028;32.372;2023-03-04T10:12:02;100295.88;;;22.48;49.81
12897;BME280;6516;35.028;32.372;2023-03-04T10:14:37;100293.91;;;22.64;49.81
12897;BME280;6516;35.028;32.372;2023-03-04T10:17:11;100295.56;;;22.10;49.02
12897;BME280;6516;35.028;32.372;2023-03-04T10:19:52;100292.09;;;21.80;50.18
12897;BME280;6516;35.028;32.372;2023-03-04T10:22:26;100290.47;;;21.92;50.69
12897;BME280;6516;35.028;32.372;2023-03-04T10:25:04;100277.34;;;22.43;51.19
12897;BME280;6516;35.028;32.372;2023-03-04T10:27:43;100273.91;;;22.41;48.86
12897;BME280;6516;35.028;32.372;2023-03-04T10:30:25;100272.16;;;22.68;47.72
12897;BME280;6516;35.028;32.372;2023-03-04T10:32:58;100259.94;;;22.50;47.17
12897;BME280;6516;35.028;32.372;2023-03-04T10:35:31;100250.72;;;22.54;46.55
12897;BME280;6516;35.028;32.372;2023-03-04T10:38:02;100258.97;;;22.78;47.46
12897;BME280;6516;35.028;32.372;2023-03-04T10:40:36;100245.94;;;22.98;48.10
12897;BME280;6516;35.028;32.372;2023-03-04T10:43:08;100247.16;;;23.33;46.65
12897;BME280;6516;35.028;32.372;2023-03-04T10:45:42;100239.22;;;23.05;44.80
12897;BME280;6516;35.028;32.372;2023-03-04T10:48:21;100233.81;;;23.19;46.44
12897;BME280;6516;35.028;32.372;2023-03-04T10:50:50;100229.72;;;22.61;47.58
12897;BME280;6516;35.028;32.372;2023-03-04T10:53:32;100220.22;;;22.82;48.26
12897;BME280;6516;35.028;32.372;2023-03-04T10:56:31;100209.53;;;22.94;45.62
12897;BME280;6516;35.028;32.372;2023-03-04T10:59:30;100216.66;;;22.55;48.21
12897;BME280;6516;35.028;32.372;2023-03-04T11:02:16;100213.09;;;23.07;47.64
12897;BME280;6516;35.028;32.372;2023-03-04T11:05:15;100205.25;;;22.92;47.87
12897;BME280;6516;35.028;32.372;2023-03-04T11:07:45;100207.31;;;22.74;48.92
12897;BME280;6516;35.028;32.372;2023-03-04T11:10:18;100210.84;;;23.14;48.50
12897;BME280;6516;35.028;32.372;2023-03-04T11:12:51;100208.28;;;22.73;48.83
12897;BME280;6516;35.028;32.372;2023-03-04T11:15:23;100206.75;;;22.69;49.29
12897;BME280;6516;35.028;32.372;2023-03-04T11:17:58;100206.75;;;22.69;47.98
12897;BME280;6516;35.028;32.372;2023-03-04T11:20:30;100199.13;;;22.63;49.13
12897;BME280;6516;35.028;32.372;2023-03-04T11:23:03;100202.94;;;22.05;49.86
12897;BME280;6516;35.028;32.372;2023-03-04T11:25:34;100196.44;;;22.09;51.62
12897;BME280;6516;35.028;32.372;2023-03-04T11:28:08;100200.38;;;22.58;51.04
12897;BME280;6516;35.028;32.372;2023-03-04T11:30:42;100196.66;;;22.73;50.32
12897;BME280;6516;35.028;32.372;2023-03-04T11:33:20;100204.88;;;22.57;50.71
12897;BME280;6516;35.028;32.372;2023-03-04T11:35:54;100204.41;;;22.37;51.41
12897;BME280;6516;35.028;32.372;2023-03-04T11:38:32;100210.22;;;22.17;51.33
12897;BME280;6516;35.028;32.372;2023-03-04T11:41:04;100211.78;;;21.93;51.38
12897;BME280;6516;35.028;32.372;2023-03-04T11:43:37;100211.69;;;21.94;52.59
12897;BME280;6516;35.028;32.372;2023-03-04T11:46:27;100214.38;;;22.08;51.87
12897;BME280;6516;35.028;32.372;2023-03-04T11:49:49;100205.84;;;21.30;53.30
12897;BME280;6516;35.028;32.372;2023-03-04T11:52:34;100217.91;;;21.23;53.66
12897;BME280;6516;35.028;32.372;2023-03-04T11:55:25;100207.41;;;21.48;54.72
12897;BME280;6516;35.028;32.372;2023-03-04T11:58:08;100194.03;;;21.48;53.65
12897;BME280;6516;35.028;32.372;2023-03-04T12:00:53;100196.34;;;21.40;53.98
12897;BME280;6516;35.028;32.372;2023-03-04T12:06:34;100189.88;;;21.86;52.88
12897;BME280;6516;35.028;32.372;2023-03-04T12:09:28;100180.94;;;22.00;52.31
12897;BME280;6516;35.028;32.372;2023-03-04T12:12:16;100185.00;;;21.35;51.73
12897;BME280;6516;35.028;32.372;2023-03-04T12:15:08;100191.66;;;21.00;53.43
12897;BME280;6516;35.028;32.372;2023-03-04T12:17:56;100174.72;;;21.00;55.48
12897;BME280;6516;35.028;32.372;2023-03-04T12:20:45;100175.44;;;21.17;55.04
12897;BME280;6516;35.028;32.372;2023-03-04T12:23:33;100162.16;;;21.30;55.18
12897;BME280;6516;35.028;32.372;2023-03-04T12:26:22;100169.38;;;20.84;55.03
12897;BME280;6516;35.028;32.372;2023-03-04T12:28:56;100164.28;;;20.95;53.47
12897;BME280;6516;35.028;32.372;2023-03-04T12:31:34;100160.00;;;20.77;55.36
12897;BME280;6516;35.028;32.372;2023-03-04T12:34:26;100167.81;;;20.80;55.08
12897;BME280;6516;35.028;32.372;2023-03-04T12:37:39;100170.50;;;20.20;56.17
12897;BME280;6516;35.028;32.372;2023-03-04T12:40:31;100182.81;;;20.07;57.34
12897;BME280;6516;35.028;32.372;2023-03-04T12:43:15;100180.44;;;20.33;56.91
12897;BME280;6516;35.028;32.372;2023-03-04T12:45:58;100186.47;;;20.21;57.06
12897;BME280;6516;35.028;32.372;2023-03-04T12:48:34;100178.50;;;20.04;57.13
12897;BME280;6516;35.028;32.372;2023-03-04T12:51:16;100185.91;;;19.99;58.05
12897;BME280;6516;35.028;32.372;2023-03-04T12:53:58;100176.50;;;19.92;56.31
12897;BME280;6516;35.028;32.372;2023-03-04T12:56:38;100178.56;;;19.72;56.82
12897;BME280;6516;35.028;32.372;2023-03-04T12:59:13;100168.28;;;19.64;58.41
12897;BME280;6516;35.028;32.372;2023-03-04T13:01:47;100175.03;;;19.38;58.43
12897;BME280;6516;35.028;32.372;2023-03-04T13:04:25;100165.94;;;19.58;58.29
12897;BME280;6516;35.028;32.372;2023-03-04T13:07:07;100152.47;;;19.44;58.31
12897;BME280;6516;35.028;32.372;2023-03-04T13:09:46;100154.56;;;19.54;59.13
12897;BME280;6516;35.028;32.372;2023-03-04T13:12:20;100153.44;;;19.26;59.25
12897;BME280;6516;35.028;32.372;2023-03-04T13:15:17;100157.78;;;19.44;60.07